createdAt,value
2019-05-09T00:00:49.486Z,66.60
2019-05-09T00:03:15.951Z,66.55
2019-05-09T00:05:44.095Z,66.80
2019-05-09T00:08:10.451Z,66.87
2019-05-09T00:10:41.583Z,66.98
2019-05-09T00:13:05.801Z,66.87
2019-05-09T00:15:33.239Z,67.20
2019-05-09T00:17:59.654Z,66.93
2019-05-09T00:20:27.658Z,67.09
2019-05-09T00:22:54.014Z,66.74
2019-05-09T00:25:20.153Z,66.64
2019-05-09T00:27:46.479Z,66.80
2019-05-09T00:30:14.480Z,66.52
2019-05-09T00:32:43.234Z,66.64
2019-05-09T00:35:17.327Z,66.85
2019-05-09T00:37:55.457Z,67.19
2019-05-09T00:40:23.823Z,66.87
2019-05-09T00:42:53.330Z,66.98
2019-05-09T00:45:39.954Z,66.90
2019-05-09T00:48:06.257Z,67.07
2019-05-09T00:50:34.141Z,67.16
2019-05-09T00:53:00.440Z,67.11
2019-05-09T00:55:26.649Z,67.41
2019-05-09T00:57:53.439Z,67.47
2019-05-09T01:00:20.413Z,67.46
2019-05-09T01:02:46.554Z,67.62
2019-05-09T01:05:13.270Z,67.51
2019-05-09T01:07:39.825Z,67.22
2019-05-09T01:10:07.356Z,67.41
2019-05-09T01:12:34.203Z,67.28
2019-05-09T01:15:03.346Z,67.34
2019-05-09T01:17:29.820Z,67.05
2019-05-09T01:19:57.181Z,67.16
2019-05-09T01:22:23.663Z,67.29
2019-05-09T01:24:50.067Z,67.29
2019-05-09T01:27:16.281Z,67.25
2019-05-09T01:29:43.954Z,67.25
2019-05-09T01:32:14.722Z,67.12
2019-05-09T01:34:41.142Z,67.11
2019-05-09T01:37:09.210Z,67.39
2019-05-09T01:39:35.725Z,67.42
2019-05-09T01:42:03.280Z,67.15
2019-05-09T01:44:29.995Z,67.58
2019-05-09T01:46:56.166Z,67.45
2019-05-09T01:49:23.226Z,67.45
2019-05-09T01:51:49.680Z,67.53
2019-05-09T01:54:17.305Z,67.68
2019-05-09T01:56:43.547Z,67.61
2019-05-09T01:59:09.863Z,67.44
2019-05-09T02:01:36.107Z,67.38
2019-05-09T02:04:04.047Z,67.34
2019-05-09T02:06:30.554Z,67.43
2019-05-09T02:08:56.786Z,67.47
2019-05-09T02:11:23.868Z,67.84
2019-05-09T02:13:50.588Z,67.73
2019-05-09T02:16:33.871Z,67.58
2019-05-09T02:19:04.059Z,67.46
2019-05-09T02:21:30.383Z,67.73
2019-05-09T02:23:56.672Z,67.86
2019-05-09T02:26:24.012Z,67.93
2019-05-09T02:28:50.326Z,68.09
2019-05-09T02:31:16.752Z,68.03
2019-05-09T02:33:45.574Z,68.21
2019-05-09T02:36:11.032Z,68.28
2019-05-09T02:38:39.210Z,68.35
2019-05-09T02:41:08.366Z,68.34
2019-05-09T02:43:34.517Z,68.47
2019-05-09T02:46:02.741Z,68.37
2019-05-09T02:48:29.165Z,68.46
2019-05-09T02:50:55.433Z,68.31
2019-05-09T02:53:21.661Z,67.90
2019-05-09T02:55:49.424Z,67.75
2019-05-09T02:58:20.394Z,67.72
2019-05-09T03:00:59.706Z,67.58
2019-05-09T03:03:39.061Z,67.68
2019-05-09T03:06:04.116Z,67.98
2019-05-09T03:08:30.404Z,68.22
2019-05-09T03:10:59.079Z,68.34
2019-05-09T03:13:24.820Z,68.15
2019-05-09T03:15:52.884Z,68.55
2019-05-09T03:18:19.112Z,68.66
2019-05-09T03:20:58.585Z,68.46
2019-05-09T03:23:24.698Z,68.44
2019-05-09T03:25:51.018Z,68.32
2019-05-09T03:28:19.154Z,68.50
2019-05-09T03:30:50.477Z,68.49
2019-05-09T03:33:19.956Z,68.51
2019-05-09T03:35:48.172Z,68.51
2019-05-09T03:38:14.545Z,68.67
2019-05-09T03:40:40.867Z,68.72
2019-05-09T03:43:08.104Z,68.71
2019-05-09T03:45:37.669Z,68.76
2019-05-09T03:48:07.388Z,68.60
2019-05-09T03:50:34.018Z,68.49
2019-05-09T03:53:01.125Z,68.39
2019-05-09T03:55:29.260Z,68.34
2019-05-09T03:57:58.127Z,67.93
2019-05-09T04:00:24.793Z,67.99
2019-05-09T04:02:51.179Z,68.19
2019-05-09T04:05:18.096Z,68.05
2019-05-09T04:07:44.395Z,68.52
2019-05-09T04:10:10.923Z,68.23
2019-05-09T04:12:37.625Z,68.62
2019-05-09T04:15:05.686Z,68.51
2019-05-09T04:17:42.220Z,68.83
2019-05-09T04:20:11.638Z,68.78
2019-05-09T04:22:38.549Z,69.26
2019-05-09T04:25:07.811Z,69.03
2019-05-09T04:27:34.399Z,68.74
2019-05-09T04:30:00.569Z,68.72
2019-05-09T04:32:27.358Z,68.82
2019-05-09T04:34:53.797Z,68.81
2019-05-09T04:37:19.903Z,68.81
2019-05-09T04:39:47.686Z,68.84
2019-05-09T04:42:13.894Z,68.63
2019-05-09T04:44:41.961Z,68.68
2019-05-09T04:47:08.849Z,68.60
2019-05-09T04:49:39.780Z,68.16
2019-05-09T04:52:03.179Z,68.08
2019-05-09T04:54:29.534Z,67.91
2019-05-09T04:56:57.378Z,67.77
2019-05-09T04:59:23.831Z,67.82
2019-05-09T05:01:52.193Z,67.79
2019-05-09T05:04:19.761Z,67.69
2019-05-09T05:06:47.773Z,67.77
2019-05-09T05:09:14.109Z,67.60
2019-05-09T05:11:40.283Z,67.37
2019-05-09T05:14:09.088Z,67.44
2019-05-09T05:16:34.603Z,67.42
2019-05-09T05:19:00.800Z,67.37
2019-05-09T05:21:28.450Z,67.43
2019-05-09T05:23:57.703Z,67.29
2019-05-09T05:26:24.069Z,67.06
2019-05-09T05:28:50.358Z,66.77
2019-05-09T05:31:18.076Z,66.94
2019-05-09T05:34:02.869Z,66.99
2019-05-09T05:36:28.971Z,66.90
2019-05-09T05:38:55.209Z,66.84
2019-05-09T05:41:21.369Z,66.70
2019-05-09T05:43:47.980Z,66.75
2019-05-09T05:46:18.191Z,66.78
2019-05-09T05:48:45.306Z,66.90
2019-05-09T05:51:11.522Z,66.46
2019-05-09T05:53:38.107Z,66.41
2019-05-09T05:56:04.564Z,66.67
2019-05-09T05:58:30.795Z,66.60
2019-05-09T06:00:58.859Z,66.30
2019-05-09T06:03:25.075Z,66.31
2019-05-09T06:05:51.882Z,66.12
2019-05-09T06:08:18.258Z,66.03
2019-05-09T06:10:44.458Z,66.00
2019-05-09T06:13:10.688Z,65.82
2019-05-09T06:15:37.862Z,64.56
2019-05-09T06:18:04.521Z,64.60
2019-05-09T06:20:30.615Z,64.43
2019-05-09T06:22:58.208Z,64.43
2019-05-09T06:25:24.675Z,63.74
2019-05-09T06:27:50.878Z,63.45
2019-05-09T06:30:32.810Z,63.65
2019-05-09T06:32:59.534Z,62.85
2019-05-09T06:35:28.224Z,62.87
2019-05-09T06:37:54.259Z,62.94
2019-05-09T06:40:23.123Z,62.53
2019-05-09T06:42:50.141Z,61.64
2019-05-09T06:45:31.073Z,61.37
2019-05-09T06:47:58.340Z,61.19
2019-05-09T06:50:27.299Z,61.47
2019-05-09T06:52:53.598Z,61.72
2019-05-09T06:55:19.873Z,61.30
2019-05-09T06:57:48.687Z,61.55
2019-05-09T07:00:19.879Z,61.60
2019-05-09T07:02:48.083Z,61.44
2019-05-09T07:05:25.246Z,61.51
2019-05-09T07:07:53.373Z,62.22
2019-05-09T07:10:19.624Z,61.49
2019-05-09T07:12:45.877Z,61.57
2019-05-09T07:15:12.211Z,61.92
2019-05-09T07:17:38.803Z,61.48
2019-05-09T07:20:08.179Z,61.89
2019-05-09T07:22:35.414Z,61.95
2019-05-09T07:25:12.857Z,61.22
2019-05-09T07:27:40.293Z,61.12
2019-05-09T07:30:29.064Z,61.31
2019-05-09T07:33:02.625Z,59.98
2019-05-09T07:35:28.836Z,59.75
2019-05-09T07:37:55.003Z,59.54
2019-05-09T07:40:21.214Z,59.09
2019-05-09T07:42:48.107Z,59.04
2019-05-09T07:45:14.488Z,58.73
2019-05-09T07:47:40.624Z,58.70
2019-05-09T07:50:08.597Z,58.09
2019-05-09T07:52:34.973Z,58.21
2019-05-09T07:55:01.211Z,58.27
2019-05-09T07:57:28.715Z,57.48
2019-05-09T07:59:55.177Z,57.56
2019-05-09T08:02:21.349Z,57.66
2019-05-09T08:04:48.861Z,57.23
2019-05-09T08:07:17.565Z,56.83
2019-05-09T08:09:43.738Z,56.83
2019-05-09T08:12:10.008Z,57.04
2019-05-09T08:14:37.708Z,56.28
2019-05-09T08:17:04.305Z,56.47
2019-05-09T08:19:30.506Z,56.60
2019-05-09T08:21:57.502Z,56.58
2019-05-09T08:24:27.559Z,56.52
2019-05-09T08:26:53.211Z,57.08
2019-05-09T08:29:20.096Z,57.44
2019-05-09T08:31:48.505Z,57.55
2019-05-09T08:34:15.241Z,57.23
2019-05-09T08:36:41.401Z,56.35
2019-05-09T08:39:08.352Z,56.19
2019-05-09T08:41:34.571Z,55.01
2019-05-09T08:44:00.924Z,55.15
2019-05-09T08:46:28.608Z,55.96
2019-05-09T08:48:57.582Z,55.88
2019-05-09T08:51:35.292Z,54.97
2019-05-09T08:53:53.953Z,54.90
2019-05-09T08:56:20.072Z,55.27
2019-05-09T08:58:48.495Z,55.14
2019-05-09T09:01:14.800Z,55.30
2019-05-09T09:03:41.048Z,55.34
2019-05-09T09:06:08.262Z,55.39
2019-05-09T09:08:34.736Z,56.21
2019-05-09T09:11:00.896Z,54.08
2019-05-09T09:13:28.371Z,53.48
2019-05-09T09:16:12.100Z,53.69
2019-05-09T09:18:23.120Z,53.95
2019-05-09T09:20:49.307Z,54.23
2019-05-09T09:23:17.874Z,54.25
2019-05-09T09:25:43.732Z,53.15
2019-05-09T09:28:10.140Z,51.68
2019-05-09T09:30:38.623Z,51.88
2019-05-09T09:33:04.597Z,52.74
2019-05-09T09:35:30.763Z,51.59
2019-05-09T09:37:57.984Z,52.01
2019-05-09T09:40:24.838Z,50.79
2019-05-09T09:42:51.128Z,50.08
2019-05-09T09:45:18.373Z,49.88
2019-05-09T09:47:44.926Z,50.00
2019-05-09T09:50:11.390Z,50.45
2019-05-09T09:52:38.455Z,50.38
2019-05-09T09:55:08.780Z,50.53
2019-05-09T09:57:34.160Z,50.48
2019-05-09T10:00:18.098Z,50.33
2019-05-09T10:02:44.415Z,49.88
2019-05-09T10:05:11.108Z,50.00
2019-05-09T10:07:38.410Z,50.48
2019-05-09T10:10:07.692Z,50.55
2019-05-09T10:12:33.842Z,50.03
2019-05-09T10:15:04.962Z,49.83
2019-05-09T10:17:38.116Z,49.52
2019-05-09T10:20:18.251Z,49.19
2019-05-09T10:22:55.365Z,49.21
2019-05-09T10:25:12.883Z,49.69
2019-05-09T10:27:39.009Z,49.23
2019-05-09T10:30:09.121Z,49.81
2019-05-09T10:32:38.179Z,48.43
2019-05-09T10:35:04.771Z,47.98
2019-05-09T10:37:31.011Z,46.16
2019-05-09T10:39:58.056Z,46.95
2019-05-09T10:42:29.520Z,45.11
2019-05-09T10:45:14.372Z,40.78
2019-05-09T10:47:41.962Z,40.78
2019-05-09T10:50:08.692Z,40.97
2019-05-09T10:52:35.157Z,39.33
2019-05-09T10:55:01.438Z,39.99
2019-05-09T10:57:31.519Z,39.55
2019-05-09T10:59:57.942Z,39.92
2019-05-09T11:02:24.086Z,40.91
2019-05-09T11:04:50.191Z,42.54
2019-05-09T11:07:18.182Z,43.64
2019-05-09T11:09:44.459Z,44.41
2019-05-09T11:12:10.829Z,39.00
2019-05-09T11:14:37.749Z,35.83
2019-05-09T11:17:10.647Z,33.27
2019-05-09T11:19:32.246Z,32.31
2019-05-09T11:21:58.763Z,34.51
2019-05-09T11:24:40.604Z,36.14
2019-05-09T11:26:53.624Z,35.52
2019-05-09T11:29:19.991Z,33.71
2019-05-09T11:31:47.782Z,31.71
2019-05-09T11:34:14.563Z,32.09
2019-05-09T11:36:41.973Z,31.78
2019-05-09T11:39:10.599Z,33.27
2019-05-09T11:41:38.374Z,34.63
2019-05-09T11:44:04.912Z,36.10
2019-05-09T11:46:32.255Z,36.44
2019-05-09T11:48:59.112Z,38.13
2019-05-09T11:51:25.352Z,39.16
2019-05-09T11:53:51.688Z,40.28
2019-05-09T11:56:18.302Z,36.42
2019-05-09T11:58:44.563Z,35.63
2019-05-09T12:01:10.783Z,37.17
2019-05-09T12:03:38.851Z,38.37
2019-05-09T12:06:05.112Z,39.18
2019-05-09T12:08:31.529Z,39.78
2019-05-09T12:10:58.012Z,40.86
2019-05-09T12:13:24.172Z,41.99
2019-05-09T12:15:50.411Z,42.45
2019-05-09T12:18:16.590Z,39.12
2019-05-09T12:20:42.926Z,38.01
2019-05-09T12:23:09.051Z,38.17
2019-05-09T12:25:35.304Z,36.15
2019-05-09T12:28:01.507Z,32.76
2019-05-09T12:30:28.598Z,31.56
2019-05-09T12:32:55.016Z,29.07
2019-05-09T12:35:21.503Z,30.37
2019-05-09T12:37:48.404Z,31.70
2019-05-09T12:40:15.010Z,32.67
2019-05-09T12:42:42.283Z,33.68
2019-05-09T12:45:09.279Z,31.72
2019-05-09T12:47:35.646Z,33.76
2019-05-09T12:50:02.932Z,34.60
2019-05-09T12:52:29.649Z,35.68
2019-05-09T12:54:58.142Z,36.26
2019-05-09T12:57:24.086Z,36.88
2019-05-09T12:59:52.870Z,37.28
2019-05-09T13:02:18.733Z,37.31
2019-05-09T13:04:44.845Z,38.16
2019-05-09T13:07:11.277Z,38.89
2019-05-09T13:09:37.453Z,38.96
2019-05-09T13:12:03.741Z,38.11
2019-05-09T13:14:31.090Z,38.95
2019-05-09T13:17:05.253Z,37.26
2019-05-09T13:19:42.571Z,36.89
2019-05-09T13:22:08.724Z,36.08
2019-05-09T13:24:37.870Z,35.59
2019-05-09T13:27:04.389Z,31.92
2019-05-09T13:29:30.682Z,31.97
2019-05-09T13:31:57.760Z,30.88
2019-05-09T13:34:24.292Z,31.68
2019-05-09T13:36:50.522Z,32.13
2019-05-09T13:39:17.991Z,33.42
2019-05-09T13:41:44.485Z,32.83
2019-05-09T13:44:13.963Z,32.82
2019-05-09T13:46:39.177Z,33.00
2019-05-09T13:49:11.545Z,33.41
2019-05-09T13:51:33.796Z,34.00
2019-05-09T13:54:00.053Z,32.47
2019-05-09T13:56:27.952Z,29.26
2019-05-09T13:58:54.378Z,28.83
2019-05-09T14:01:20.527Z,26.74
2019-05-09T14:03:49.134Z,23.60
2019-05-09T14:06:15.066Z,26.27
2019-05-09T14:08:41.325Z,26.40
2019-05-09T14:11:08.309Z,24.67
2019-05-09T14:13:34.858Z,25.15
2019-05-09T14:16:15.828Z,25.96
2019-05-09T14:18:29.486Z,26.75
2019-05-09T14:20:57.565Z,27.59
2019-05-09T14:23:23.884Z,29.52
2019-05-09T14:25:51.977Z,31.17
2019-05-09T14:28:19.194Z,30.13
2019-05-09T14:30:47.672Z,31.32
2019-05-09T14:33:13.437Z,32.78
2019-05-09T14:35:39.624Z,33.36
2019-05-09T14:38:05.899Z,32.53
2019-05-09T14:40:32.119Z,30.75
2019-05-09T14:42:58.214Z,31.24
2019-05-09T14:45:24.470Z,32.21
2019-05-09T14:47:50.636Z,30.67
2019-05-09T14:50:18.060Z,29.42
2019-05-09T14:52:44.562Z,27.31
2019-05-09T14:55:10.967Z,25.31
2019-05-09T14:57:38.385Z,25.32
2019-05-09T15:00:07.738Z,26.47
2019-05-09T15:02:33.846Z,27.13
2019-05-09T15:05:01.013Z,28.34
2019-05-09T15:07:28.394Z,29.79
2019-05-09T15:09:56.859Z,30.81
2019-05-09T15:12:22.990Z,31.99
2019-05-09T15:14:49.201Z,33.15
2019-05-09T15:17:15.402Z,34.05
2019-05-09T15:19:56.570Z,34.52
2019-05-09T15:22:09.696Z,35.31
2019-05-09T15:24:35.819Z,36.16
2019-05-09T15:27:02.108Z,36.12
2019-05-09T15:29:29.086Z,36.39
2019-05-09T15:32:03.279Z,37.18
2019-05-09T15:34:23.699Z,36.92
2019-05-09T15:36:49.976Z,36.61
2019-05-09T15:39:18.362Z,37.02
2019-05-09T15:41:44.566Z,37.43
2019-05-09T15:44:10.858Z,37.16
2019-05-09T15:46:48.566Z,37.27
2019-05-09T15:49:14.775Z,38.01
2019-05-09T15:51:41.071Z,37.78
2019-05-09T15:54:08.316Z,37.49
2019-05-09T15:56:35.614Z,38.03
2019-05-09T15:59:02.107Z,39.37
2019-05-09T16:01:28.404Z,40.34
2019-05-09T16:03:54.786Z,40.86
2019-05-09T16:06:21.137Z,41.07
2019-05-09T16:08:47.420Z,41.45
2019-05-09T16:11:13.699Z,41.13
2019-05-09T16:13:39.922Z,40.89
2019-05-09T16:16:08.810Z,41.11
2019-05-09T16:18:34.220Z,41.11
2019-05-09T16:21:00.378Z,41.70
2019-05-09T16:23:28.979Z,41.94
2019-05-09T16:25:54.737Z,41.77
2019-05-09T16:28:21.122Z,42.23
2019-05-09T16:30:48.297Z,42.21
2019-05-09T16:33:14.875Z,42.54
2019-05-09T16:35:41.739Z,42.87
2019-05-09T16:38:10.793Z,42.93
2019-05-09T16:40:38.642Z,43.21
2019-05-09T16:43:04.907Z,43.39
2019-05-09T16:45:31.279Z,43.23
2019-05-09T16:47:57.722Z,43.36
2019-05-09T16:50:23.836Z,43.78
2019-05-09T16:52:50.153Z,43.82
2019-05-09T16:55:21.429Z,44.26
2019-05-09T16:57:47.595Z,44.71
2019-05-09T17:00:20.642Z,44.90
2019-05-09T17:02:48.092Z,45.12
2019-05-09T17:05:14.552Z,45.43
2019-05-09T17:07:40.768Z,45.55
2019-05-09T17:10:08.633Z,45.95
2019-05-09T17:12:35.036Z,46.08
2019-05-09T17:15:02.689Z,46.25
2019-05-09T17:17:29.932Z,46.69
2019-05-09T17:19:57.289Z,47.08
2019-05-09T17:22:42.426Z,47.60
2019-05-09T17:25:08.719Z,48.02
2019-05-09T17:27:35.090Z,48.16
2019-05-09T17:30:02.882Z,48.30
2019-05-09T17:32:29.271Z,49.00
2019-05-09T17:34:58.152Z,49.20
2019-05-09T17:37:23.803Z,49.25
2019-05-09T17:39:50.018Z,49.81
2019-05-09T17:42:18.113Z,50.19
2019-05-09T17:44:44.249Z,50.18
2019-05-09T17:47:10.526Z,50.15
2019-05-09T17:49:37.483Z,50.34
2019-05-09T17:52:04.014Z,50.77
2019-05-09T17:54:30.249Z,51.09
2019-05-09T17:56:57.347Z,51.13
2019-05-09T17:59:23.873Z,51.33
2019-05-09T18:01:50.095Z,51.27
2019-05-09T18:04:17.931Z,51.35
2019-05-09T18:06:44.472Z,51.48
2019-05-09T18:09:10.886Z,51.69
2019-05-09T18:11:37.848Z,51.67
2019-05-09T18:14:04.116Z,52.11
2019-05-09T18:16:30.659Z,52.27
2019-05-09T18:18:59.108Z,52.45
2019-05-09T18:21:25.268Z,52.45
2019-05-09T18:23:51.475Z,52.71
2019-05-09T18:26:18.510Z,53.19
2019-05-09T18:28:45.197Z,54.85
2019-05-09T18:31:11.415Z,55.78
2019-05-09T18:33:47.589Z,56.58
2019-05-09T18:36:13.599Z,56.98
2019-05-09T18:38:39.920Z,57.31
2019-05-09T18:41:09.549Z,57.90
2019-05-09T18:43:34.156Z,57.96
2019-05-09T18:46:00.417Z,58.16
2019-05-09T18:48:27.826Z,58.27
2019-05-09T18:50:54.386Z,58.34
2019-05-09T18:53:20.711Z,58.31
2019-05-09T18:55:46.936Z,59.07
2019-05-09T18:58:13.056Z,59.05
2019-05-09T19:00:39.298Z,59.11
2019-05-09T19:03:05.580Z,59.17
2019-05-09T19:05:31.829Z,59.01
2019-05-09T19:07:58.063Z,58.56
2019-05-09T19:10:24.478Z,58.60
2019-05-09T19:12:50.794Z,58.33
2019-05-09T19:15:28.361Z,58.16
2019-05-09T19:18:02.648Z,57.76
2019-05-09T19:20:47.809Z,57.66
2019-05-09T19:23:14.100Z,58.03
2019-05-09T19:25:40.433Z,58.70
2019-05-09T19:28:06.865Z,58.57
2019-05-09T19:30:34.376Z,58.39
2019-05-09T19:33:00.829Z,58.60
2019-05-09T19:35:27.015Z,58.73
2019-05-09T19:37:53.297Z,59.03
2019-05-09T19:40:20.414Z,59.48
2019-05-09T19:42:47.036Z,59.32
2019-05-09T19:45:13.765Z,59.71
2019-05-09T19:47:40.056Z,60.42
2019-05-09T19:50:06.699Z,60.80
2019-05-09T19:52:38.534Z,60.55
2019-05-09T19:55:02.498Z,60.79
2019-05-09T19:57:28.953Z,62.00
2019-05-09T19:59:55.381Z,62.00
2019-05-09T20:02:21.512Z,63.10
2019-05-09T20:04:47.835Z,63.89
2019-05-09T20:07:14.113Z,64.27
2019-05-09T20:09:42.237Z,65.14
2019-05-09T20:12:13.253Z,64.45
2019-05-09T20:14:41.288Z,64.46
2019-05-09T20:17:07.533Z,65.97
2019-05-09T20:19:33.926Z,65.03
2019-05-09T20:22:00.110Z,65.38
2019-05-09T20:24:26.455Z,65.32
2019-05-09T20:26:52.713Z,65.57
2019-05-09T20:29:19.054Z,65.82
2019-05-09T20:31:45.400Z,66.26
2019-05-09T20:34:11.776Z,66.97
2019-05-09T20:36:37.895Z,67.91
2019-05-09T20:39:06.569Z,68.04
2019-05-09T20:41:33.669Z,68.63
2019-05-09T20:44:00.123Z,69.16
2019-05-09T20:46:26.452Z,69.81
2019-05-09T20:48:52.549Z,71.06
2019-05-09T20:51:18.790Z,71.23
2019-05-09T20:53:44.984Z,71.20
2019-05-09T20:56:11.212Z,72.23
2019-05-09T20:58:37.352Z,71.72
2019-05-09T21:01:03.705Z,72.18
2019-05-09T21:03:29.875Z,72.94
2019-05-09T21:05:56.088Z,72.35
2019-05-09T21:08:22.466Z,72.51
2019-05-09T21:10:48.587Z,72.31
2019-05-09T21:13:14.804Z,72.68
2019-05-09T21:15:40.946Z,72.79
2019-05-09T21:18:07.217Z,73.08
2019-05-09T21:20:34.427Z,72.95
2019-05-09T21:23:00.810Z,72.90
2019-05-09T21:25:27.282Z,72.66
2019-05-09T21:27:53.634Z,72.67
2019-05-09T21:30:20.084Z,72.59
2019-05-09T21:32:46.237Z,72.62
2019-05-09T21:35:13.245Z,72.98
2019-05-09T21:37:39.426Z,73.05
2019-05-09T21:40:06.318Z,72.69
2019-05-09T21:42:32.509Z,72.88
2019-05-09T21:44:58.631Z,72.70
2019-05-09T21:47:24.795Z,72.32
2019-05-09T21:49:50.965Z,72.37
2019-05-09T21:52:17.121Z,72.23
2019-05-09T21:54:43.284Z,72.07
2019-05-09T21:57:09.622Z,72.27
2019-05-09T21:59:36.112Z,72.38
2019-05-09T22:02:02.944Z,72.67
2019-05-09T22:04:29.373Z,72.90
2019-05-09T22:06:55.529Z,73.18
2019-05-09T22:09:21.711Z,72.99
2019-05-09T22:11:48.067Z,72.92
2019-05-09T22:14:14.500Z,73.05
2019-05-09T22:16:40.814Z,72.71
2019-05-09T22:19:07.078Z,72.70
2019-05-09T22:21:33.267Z,72.83
2019-05-09T22:23:59.423Z,72.80
2019-05-09T22:26:25.571Z,72.55
2019-05-09T22:28:51.783Z,72.62
2019-05-09T22:31:18.062Z,72.25
2019-05-09T22:33:44.334Z,72.43
2019-05-09T22:36:11.540Z,72.88
2019-05-09T22:38:37.790Z,73.28
2019-05-09T22:41:03.918Z,73.36
2019-05-09T22:43:30.134Z,73.64
2019-05-09T22:45:56.257Z,74.53
2019-05-09T22:48:22.505Z,74.73
2019-05-09T22:50:48.702Z,74.10
2019-05-09T22:53:14.987Z,74.65
2019-05-09T22:55:41.218Z,75.39
2019-05-09T22:58:07.427Z,76.19
2019-05-09T23:00:33.916Z,76.21
2019-05-09T23:03:00.122Z,76.43
2019-05-09T23:05:26.329Z,76.46
2019-05-09T23:07:52.572Z,76.21
2019-05-09T23:10:18.748Z,75.88
2019-05-09T23:12:45.118Z,76.62
2019-05-09T23:15:13.624Z,76.52
2019-05-09T23:17:39.896Z,76.47
2019-05-09T23:20:08.580Z,76.62
2019-05-09T23:22:35.097Z,76.55
2019-05-09T23:25:01.381Z,76.87
2019-05-09T23:27:27.659Z,76.91
2019-05-09T23:29:53.884Z,77.82
2019-05-09T23:32:30.791Z,77.78
2019-05-09T23:34:56.966Z,77.94
2019-05-09T23:37:23.233Z,78.06
2019-05-09T23:39:51.381Z,77.94
2019-05-09T23:42:17.558Z,78.46
2019-05-09T23:44:43.892Z,78.35
2019-05-09T23:47:10.151Z,78.37
2019-05-09T23:49:36.316Z,78.54
2019-05-09T23:52:02.663Z,78.21
2019-05-09T23:54:48.097Z,77.87
2019-05-09T23:57:32.806Z,77.86
